Página principal
METAR-TAF:

METAR-TAF

Aeroportos :

Aeroporto Internacional Netaji Subhas Chandra Bose

Calcutá, Índia

latitude: 22-39N, longitude: 088-27E, altura: 4 m

Observação actual do tempo

O boletim foi feito há 19 minutos, às 15:30 UTC
Vento 5 kt de sudoeste
Temperatura 29°C
Humidade 84%
Pressão 1011 hPa
Visibilidade: 3200 m
Poucas nuvensa uma altura de 2000 ft
bruma

METAR: VECC 231530Z 23005KT 3200 HZ FEW020 29/26 Q1011 NOSIG

Hora: 21:19 (15:49 UTC)

Previsão

O boletim foi feito há 1 hora e 49 minutos, às 14:00 UTC
Previsão válida de 23 às 15 UTC a 23 às 24 UTC
Vento 5 kt de sudoeste
Visibilidade: 3200 m
Poucas nuvensa uma altura de 2000 ft
Nuvens dispersasa uma altura de 10000 ft
bruma
Tornando-se
de 23 às 21 UTC a 23 às 23 UTC
Visibilidade: 2500 m
bruma

TAF: VECC 231400Z 2315/2324 23005KT 3200 HZ FEW020 SCT100 BECMG 2321/2323 2500 HZ

Observações e previsões do tempo de mais de 4000 aeroportos (mensagens METAR e TAF).

As estações disponíveis são os pontos amarelos e vermelhos sobre o mapa.

Mova o rato sobre o mapa para ver o nome da estação.

Depois clique no ponto para visualizar as observações e previsões meteorológicas.

Para alterar o mapa : clique nos botões verdes com uma cruz preta para aumentar o zoom; no botão verde com uma pitada de zoom; ou nas setas verdes para mapas adjacentes.


METAR-TAF: